Terminal Aerodrome Forecast
Issued by NWS

Home | Current Version | Previous Version | Text Only | Print | Product List | Glossary On
Versions: 1 2 3 4 5 6 7 8 9 10 11 12 13 14 15 16 17 18 19 20 21 22 23
000
FTUS44 KLZK 202320
TAFLIT
TAF
KLIT 202320Z 2100/2124 19007KT P6SM BKN250
     FM211200 17004KT 4SM BR OVC250
     FM211800 17008KT P6SM VCTS BKN060CB OVC100 PROB30 2118/2124 5SM
      -TSRA BR BKN040CB=

USA.gov is the U.S. government's official web portal to all federal, state and local government web resources and services.